Bismarck (BIS/KBIS)

Map

Destinations

Information

Location
Bismarck, ND
Local Time
22:39 / 10:39 pm
GMT Time
03:39 / 3:39 am
Gates
10
No FAA reported delays
METAR KBIS 260252Z 27009KT 10SM OVC100 16/07 A2960 RMK AO2 SLP024 T01610067 53031
TAF KBIS 252334Z 2600/2624 29013G22KT P6SM SCT070 BKN100 FM260200 27010KT P6SM SCT110 FM261700 29015G23KT P6SM SCT045